Fishers, IN (46037)

11:46 AM EDT on September 04, 2015 (GMT -0400)
Sunblest | | Change Station
CLOSE
Current Station
Personal Weather Station
Location: Fishers, IN
Elevation: 814 ft
Nearby Weather Stations

Elev 814 ft 39.96 °N, 86.04 °W | Updated 3 minutes ago

Clear
Clear
95.4 °F
Feels Like 103 °F
N
1.1
Wind Variable Wind from West

Today
High -- | Low -- °F
--% Chance of Precip.
Yesterday
High -- | Low -- °F
Precip. -- in
7:14 AM 8:11 PM
Waning Gibbous, 58% visible
Pressure 30.05 in
Visibility 10.0 miles
Clouds Clear
Heat Index 103 °F
Dew Point 71 °F
Humidity 45%
Rainfall 0.00 in
Snow Depth Not available.
UV 7 out of 12
Pollen 10.40 out of 12
Air Quality Not available.
Flu Activity Not available.
METAR KMQJ 041536Z AUTO 30004KT 10SM CLR 30/16 A3005 RMK AO1
Pressure 30.05 in
Visibility 10.0 miles
Clouds Clear
Heat Index 103 °F
Dew Point 71 °F
Humidity 45%
Rainfall 0.00 in
Snow Depth Not available.
UV 7 out of 12
Pollen 10.40 out of 12
Air Quality Not available.
Flu Activity Not available.
METAR KMQJ 041536Z AUTO 30004KT 10SM CLR 30/16 A3005 RMK AO1

10-Day Weather Forecast

×

Almanac

Astronomy

Sep. 04, 2015 Rise Set
Actual Time
Civil Twilight
Nautical Twilight
Astronomical Twilight
Moon
Length of Visible Light
Length of Day
Tomorrow will be .
, % of the Moon is Illuminated

Today's Extremes

State Highs State Lows

Community

WunderPhotos

Upload Photos

1,852,197 photos uploaded!

WunderBlogs® & News

Nearby

Air Quality

  Air Quality AQ Index Pollutant
Not available.

Snow Depth

Station Depth Elevation

Earthquake Activity

City Distance Mag. Time & Date
Minimum magnitude displayed is 2.5.

Coastal Water Temperatures

Place Temperature

Stations

Nearby Weather Stations

Station Location Temp. Windchill Dew Point Humidity Wind Precip. Elev Updated Type